Niagara Falls International Airport Niagara Falls US
ICAO: KIAG
IATA: IAG
Category: Medium
Scheduled Services: No

Elevation: 589 ft
TransAlt. 18000 ft.

Airport Communications:
BUFFALO APP/DEP:126.5
ATIS:120.8
CLNC DEL:119.25
CTAF:118.5
GND:121.7
ANG OPS:26.19
914 AW COMD POST:34.002
PTD:37.22
TWR:118.5
UNICOM:122.95

KIAG Zoom In..

If you have problems with the map follow the link
https://www.worldairports.se/pages/airport.php?
ICAO=KIAG

Runways:

(A) RW 06 length 5188 ft width 150 ft
---- / hdg 60

(B) RW 10L length 9829 ft width 150 ft
---- / hdg 100

(C) RW 10R length 3973 ft width 75 ft
---- / hdg 100

(D) RW 24 length 5188 ft width 150 ft
---- / hdg 240

(E) RW 28L length 3973 ft width 75 ft
---- / hdg 280

(F) RW 28R length 9829 ft width 150 ft
ILS 110.10 / hdg 280

Location; KIAG
Day. 18 / Time. 21.53 Zulu
* Altimeter: 30.11
* Temperature: -02° c. -28.4°f.
* Wind from: 290° Speed 14 kn.
Dewpoint: -06° c.
Visibility: 7 Statute Miles.
Clouds: Broken 2500 ft.
Clouds: Overcast 3700 ft.
Conditions: Light Snow.

KIAG 182153Z 29014KT 7SM -SN BKN025 OVC037 M02/M06 A3011 RMK AO2 SNB44 SLP213 P0000 T10171061


Wind From 290°
Speed 14 kn.

 
 
jpsmedia.com for Web Design worldairports.se 2019   terms of use